sensor_id;sensor_type;location;lat;lon;timestamp;pressure;altitude;pressure_sealevel;temperature;humidity
7105;BME280;3594;42.152;24.714;2022-08-19T00:02:11;-24477.59;;;23.81;nan
7105;BME280;3594;42.152;24.714;2022-08-19T00:04:36;-24470.41;;;23.54;nan
7105;BME280;3594;42.152;24.714;2022-08-19T00:07:04;-24483.81;;;24.03;nan
7105;BME280;3594;42.152;24.714;2022-08-19T00:09:30;-24486.44;;;24.13;nan
7105;BME280;3594;42.152;24.714;2022-08-19T00:11:56;-24484.50;;;24.06;nan
7105;BME280;3594;42.152;24.714;2022-08-19T00:14:24;-24484.78;;;24.07;nan
7105;BME280;3594;42.152;24.714;2022-08-19T00:16:49;-24468.34;;;23.47;nan
7105;BME280;3594;42.152;24.714;2022-08-19T00:19:19;-24477.88;;;23.82;nan
7105;BME280;3594;42.152;24.714;2022-08-19T00:21:44;-24477.88;;;23.82;nan
7105;BME280;3594;42.152;24.714;2022-08-19T00:24:12;-24473.47;;;23.65;nan
7105;BME280;3594;42.152;24.714;2022-08-19T00:26:39;-24471.38;;;23.58;nan
7105;BME280;3594;42.152;24.714;2022-08-19T00:29:06;-24465.44;;;23.36;nan
7105;BME280;3594;42.152;24.714;2022-08-19T00:31:33;-24465.03;;;23.34;nan
7105;BME280;3594;42.152;24.714;2022-08-19T00:33:58;-24462.97;;;23.27;nan
7105;BME280;3594;42.152;24.714;2022-08-19T00:36:24;-24475.25;;;23.72;nan
7105;BME280;3594;42.152;24.714;2022-08-19T00:38:49;-24478.84;;;23.85;nan
7105;BME280;3594;42.152;24.714;2022-08-19T00:41:19;-24467.78;;;23.45;nan
7105;BME280;3594;42.152;24.714;2022-08-19T00:44:09;-24475.94;;;23.74;nan
7105;BME280;3594;42.152;24.714;2022-08-19T00:46:37;-24465.72;;;23.37;nan
7105;BME280;3594;42.152;24.714;2022-08-19T00:49:16;-24474.84;;;23.70;nan
7105;BME280;3594;42.152;24.714;2022-08-19T00:51:45;-24466.56;;;23.40;nan
7105;BME280;3594;42.152;24.714;2022-08-19T00:54:12;-24468.06;;;23.46;nan
7105;BME280;3594;42.152;24.714;2022-08-19T00:56:37;-24475.13;;;23.71;nan
7105;BME280;3594;42.152;24.714;2022-08-19T00:59:04;-24467.94;;;23.45;nan
7105;BME280;3594;42.152;24.714;2022-08-19T01:01:36;-24475.66;;;23.73;nan
7105;BME280;3594;42.152;24.714;2022-08-19T01:04:01;-24472.63;;;23.62;nan
7105;BME280;3594;42.152;24.714;2022-08-19T01:06:27;-24470.16;;;23.53;nan
7105;BME280;3594;42.152;24.714;2022-08-19T01:08:54;-24464.63;;;23.33;nan
7105;BME280;3594;42.152;24.714;2022-08-19T01:11:20;-24473.31;;;23.65;nan
7105;BME280;3594;42.152;24.714;2022-08-19T01:13:46;-24474.00;;;23.67;nan
7105;BME280;3594;42.152;24.714;2022-08-19T01:16:12;-24472.78;;;23.63;nan
7105;BME280;3594;42.152;24.714;2022-08-19T01:18:40;-24455.22;;;22.99;nan
7105;BME280;3594;42.152;24.714;2022-08-19T01:21:15;-24459.94;;;23.16;nan
7105;BME280;3594;42.152;24.714;2022-08-19T01:23:44;-24470.56;;;23.55;nan
7105;BME280;3594;42.152;24.714;2022-08-19T01:26:14;-24460.34;;;23.17;nan
7105;BME280;3594;42.152;24.714;2022-08-19T01:28:41;-24457.03;;;23.05;nan
7105;BME280;3594;42.152;24.714;2022-08-19T01:31:18;-24462.97;;;23.27;nan
7105;BME280;3594;42.152;24.714;2022-08-19T01:33:45;-24459.78;;;23.15;nan
7105;BME280;3594;42.152;24.714;2022-08-19T01:36:16;-24465.44;;;23.36;nan
7105;BME280;3594;42.152;24.714;2022-08-19T01:38:48;-24443.19;;;22.55;nan
7105;BME280;3594;42.152;24.714;2022-08-19T01:41:14;-24459.94;;;23.16;nan
7105;BME280;3594;42.152;24.714;2022-08-19T01:43:42;-24457.31;;;23.06;nan
7105;BME280;3594;42.152;24.714;2022-08-19T01:46:07;-24460.34;;;23.17;nan
7105;BME280;3594;42.152;24.714;2022-08-19T01:48:38;-24462.81;;;23.26;nan
7105;BME280;3594;42.152;24.714;2022-08-19T01:51:05;-24463.25;;;23.28;nan
7105;BME280;3594;42.152;24.714;2022-08-19T01:53:30;-24457.72;;;23.08;nan
7105;BME280;3594;42.152;24.714;2022-08-19T01:55:56;-24461.03;;;23.20;nan
7105;BME280;3594;42.152;24.714;2022-08-19T01:58:27;-24448.44;;;22.74;nan
7105;BME280;3594;42.152;24.714;2022-08-19T02:00:56;-24457.16;;;23.06;nan
7105;BME280;3594;42.152;24.714;2022-08-19T02:03:22;-24443.59;;;22.56;nan
7105;BME280;3594;42.152;24.714;2022-08-19T02:05:54;-24449.28;;;22.77;nan
7105;BME280;3594;42.152;24.714;2022-08-19T02:08:19;-24456.47;;;23.03;nan
7105;BME280;3594;42.152;24.714;2022-08-19T02:10:45;-24444.44;;;22.59;nan
7105;BME280;3594;42.152;24.714;2022-08-19T02:13:11;-24440.69;;;22.45;nan
7105;BME280;3594;42.152;24.714;2022-08-19T02:15:37;-24447.50;;;22.70;nan
7105;BME280;3594;42.152;24.714;2022-08-19T02:18:03;-24447.50;;;22.70;nan
7105;BME280;3594;42.152;24.714;2022-08-19T02:20:28;-24435.88;;;22.28;nan
7105;BME280;3594;42.152;24.714;2022-08-19T02:22:54;-24438.91;;;22.39;nan
7105;BME280;3594;42.152;24.714;2022-08-19T02:25:19;-24446.25;;;22.66;nan
7105;BME280;3594;42.152;24.714;2022-08-19T02:27:44;-24450.94;;;22.83;nan
7105;BME280;3594;42.152;24.714;2022-08-19T02:30:13;-24437.66;;;22.34;nan
7105;BME280;3594;42.152;24.714;2022-08-19T02:32:41;-24432.97;;;22.17;nan
7105;BME280;3594;42.152;24.714;2022-08-19T02:35:07;-24440.16;;;22.43;nan
7105;BME280;3594;42.152;24.714;2022-08-19T02:37:33;-24437.38;;;22.33;nan
7105;BME280;3594;42.152;24.714;2022-08-19T02:40:17;-24439.75;;;22.42;nan
7105;BME280;3594;42.152;24.714;2022-08-19T02:42:43;-24435.44;;;22.26;nan
7105;BME280;3594;42.152;24.714;2022-08-19T02:45:10;-24443.59;;;22.56;nan
7105;BME280;3594;42.152;24.714;2022-08-19T02:47:35;-24438.34;;;22.37;nan
7105;BME280;3594;42.152;24.714;2022-08-19T02:50:03;-24444.03;;;22.58;nan
7105;BME280;3594;42.152;24.714;2022-08-19T02:52:29;-24445.97;;;22.65;nan
7105;BME280;3594;42.152;24.714;2022-08-19T02:54:54;-24443.88;;;22.57;nan
7105;BME280;3594;42.152;24.714;2022-08-19T02:57:23;-24443.34;;;22.55;nan
7105;BME280;3594;42.152;24.714;2022-08-19T02:59:49;-24443.34;;;22.55;nan
7105;BME280;3594;42.152;24.714;2022-08-19T03:02:15;-24442.63;;;22.53;nan
7105;BME280;3594;42.152;24.714;2022-08-19T03:04:41;-24440.56;;;22.45;nan
7105;BME280;3594;42.152;24.714;2022-08-19T03:07:08;-24439.75;;;22.42;nan
7105;BME280;3594;42.152;24.714;2022-08-19T03:09:36;-24432.53;;;22.16;nan
7105;BME280;3594;42.152;24.714;2022-08-19T03:12:03;-24439.47;;;22.41;nan
7105;BME280;3594;42.152;24.714;2022-08-19T03:14:30;-24440.84;;;22.46;nan
7105;BME280;3594;42.152;24.714;2022-08-19T03:16:56;-24430.88;;;22.10;nan
7105;BME280;3594;42.152;24.714;2022-08-19T03:19:23;-24433.38;;;22.19;nan
7105;BME280;3594;42.152;24.714;2022-08-19T03:21:50;-24438.06;;;22.36;nan
7105;BME280;3594;42.152;24.714;2022-08-19T03:24:17;-24437.53;;;22.34;nan
7105;BME280;3594;42.152;24.714;2022-08-19T03:26:47;-24431.16;;;22.11;nan
7105;BME280;3594;42.152;24.714;2022-08-19T03:29:13;-24439.75;;;22.42;nan
7105;BME280;3594;42.152;24.714;2022-08-19T03:31:40;-24436.97;;;22.32;nan
7105;BME280;3594;42.152;24.714;2022-08-19T03:34:06;-24426.44;;;21.93;nan
7105;BME280;3594;42.152;24.714;2022-08-19T03:36:32;-24432.97;;;22.17;nan
7105;BME280;3594;42.152;24.714;2022-08-19T03:39:00;-24424.91;;;21.88;nan
7105;BME280;3594;42.152;24.714;2022-08-19T03:41:46;-24432.97;;;22.17;nan
7105;BME280;3594;42.152;24.714;2022-08-19T03:44:21;-24427.56;;;21.97;nan
7105;BME280;3594;42.152;24.714;2022-08-19T03:46:52;-24433.66;;;22.20;nan
7105;BME280;3594;42.152;24.714;2022-08-19T03:49:19;-24442.09;;;22.51;nan
7105;BME280;3594;42.152;24.714;2022-08-19T03:51:47;-24448.19;;;22.73;nan
7105;BME280;3594;42.152;24.714;2022-08-19T03:54:15;-24454.13;;;22.95;nan
7105;BME280;3594;42.152;24.714;2022-08-19T03:56:43;-24461.84;;;23.23;nan
7105;BME280;3594;42.152;24.714;2022-08-19T03:59:21;-24484.34;;;24.05;nan
7105;BME280;3594;42.152;24.714;2022-08-19T04:01:50;-24495.81;;;24.47;nan
7105;BME280;3594;42.152;24.714;2022-08-19T04:04:16;-24507.09;;;24.89;nan
7105;BME280;3594;42.152;24.714;2022-08-19T04:06:42;-24512.88;;;25.10;nan
7105;BME280;3594;42.152;24.714;2022-08-19T04:09:09;-24529.41;;;25.71;nan
7105;BME280;3594;42.152;24.714;2022-08-19T04:11:38;-24538.34;;;26.04;nan
7105;BME280;3594;42.152;24.714;2022-08-19T04:14:08;-24551.81;;;26.53;nan
7105;BME280;3594;42.152;24.714;2022-08-19T04:16:34;-24560.72;;;26.86;nan
7105;BME280;3594;42.152;24.714;2022-08-19T04:19:01;-24573.34;;;27.33;nan
7105;BME280;3594;42.152;24.714;2022-08-19T04:21:28;-24554.41;;;26.63;nan
7105;BME280;3594;42.152;24.714;2022-08-19T04:23:54;-24539.72;;;26.09;nan
7105;BME280;3594;42.152;24.714;2022-08-19T04:26:24;-24549.47;;;26.45;nan
7105;BME280;3594;42.152;24.714;2022-08-19T04:28:50;-24554.81;;;26.64;nan
7105;BME280;3594;42.152;24.714;2022-08-19T04:31:20;-24552.75;;;26.57;nan
7105;BME280;3594;42.152;24.714;2022-08-19T04:33:45;-24551.94;;;26.54;nan
7105;BME280;3594;42.152;24.714;2022-08-19T04:36:20;-24552.22;;;26.55;nan
7105;BME280;3594;42.152;24.714;2022-08-19T04:38:52;-24562.91;;;26.94;nan
7105;BME280;3594;42.152;24.714;2022-08-19T04:41:18;-24569.63;;;27.19;nan
7105;BME280;3594;42.152;24.714;2022-08-19T04:44:02;-24569.22;;;27.17;nan
7105;BME280;3594;42.152;24.714;2022-08-19T04:46:28;-24567.16;;;27.10;nan
7105;BME280;3594;42.152;24.714;2022-08-19T04:48:55;-24548.50;;;26.41;nan
7105;BME280;3594;42.152;24.714;2022-08-19T04:51:22;-24521.56;;;25.42;nan
7105;BME280;3594;42.152;24.714;2022-08-19T04:53:48;-24512.47;;;25.08;nan
7105;BME280;3594;42.152;24.714;2022-08-19T04:56:15;-24514.41;;;25.16;nan
7105;BME280;3594;42.152;24.714;2022-08-19T04:58:43;-24522.78;;;25.46;nan
7105;BME280;3594;42.152;24.714;2022-08-19T05:01:12;-24535.72;;;25.94;nan
7105;BME280;3594;42.152;24.714;2022-08-19T05:03:38;-24533.53;;;25.86;nan
7105;BME280;3594;42.152;24.714;2022-08-19T05:06:09;-24529.81;;;25.72;nan
7105;BME280;3594;42.152;24.714;2022-08-19T05:08:36;-24519.91;;;25.36;nan
7105;BME280;3594;42.152;24.714;2022-08-19T05:11:10;-24504.75;;;24.80;nan
7105;BME280;3594;42.152;24.714;2022-08-19T05:13:36;-24519.78;;;25.35;nan
7105;BME280;3594;42.152;24.714;2022-08-19T05:16:02;-24516.06;;;25.22;nan
7105;BME280;3594;42.152;24.714;2022-08-19T05:18:28;-24523.06;;;25.47;nan
7105;BME280;3594;42.152;24.714;2022-08-19T05:21:15;-24529.69;;;25.72;nan
7105;BME280;3594;42.152;24.714;2022-08-19T05:23:59;-24529.69;;;25.72;nan
7105;BME280;3594;42.152;24.714;2022-08-19T05:26:25;-24533.38;;;25.85;nan
7105;BME280;3594;42.152;24.714;2022-08-19T05:28:54;-24536.00;;;25.95;nan
7105;BME280;3594;42.152;24.714;2022-08-19T05:31:20;-24538.88;;;26.06;nan
7105;BME280;3594;42.152;24.714;2022-08-19T05:33:46;-24537.50;;;26.01;nan
7105;BME280;3594;42.152;24.714;2022-08-19T05:36:12;-24538.75;;;26.05;nan
7105;BME280;3594;42.152;24.714;2022-08-19T05:38:39;-24541.91;;;26.17;nan
7105;BME280;3594;42.152;24.714;2022-08-19T05:41:09;-24541.63;;;26.16;nan
7105;BME280;3594;42.152;24.714;2022-08-19T05:43:34;-24543.97;;;26.24;nan
7105;BME280;3594;42.152;24.714;2022-08-19T05:46:00;-24545.63;;;26.30;nan
7105;BME280;3594;42.152;24.714;2022-08-19T05:48:25;-24550.69;;;26.49;nan
7105;BME280;3594;42.152;24.714;2022-08-19T05:50:51;-24541.63;;;26.16;nan
7105;BME280;3594;42.152;24.714;2022-08-19T05:53:17;-24554.97;;;26.65;nan
7105;BME280;3594;42.152;24.714;2022-08-19T05:55:43;-24553.03;;;26.58;nan
7105;BME280;3594;42.152;24.714;2022-08-19T05:58:08;-24560.16;;;26.84;nan
7105;BME280;3594;42.152;24.714;2022-08-19T06:00:35;-24567.84;;;27.12;nan
7105;BME280;3594;42.152;24.714;2022-08-19T06:03:01;-24561.97;;;26.91;nan
7105;BME280;3594;42.152;24.714;2022-08-19T06:05:30;-24561.81;;;26.90;nan
7105;BME280;3594;42.152;24.714;2022-08-19T06:07:56;-24571.84;;;27.27;nan
7105;BME280;3594;42.152;24.714;2022-08-19T06:10:21;-24570.19;;;27.21;nan
7105;BME280;3594;42.152;24.714;2022-08-19T06:12:48;-24586.91;;;27.83;nan
7105;BME280;3594;42.152;24.714;2022-08-19T06:15:13;-24580.59;;;27.59;nan
7105;BME280;3594;42.152;24.714;2022-08-19T06:17:40;-24580.88;;;27.60;nan
7105;BME280;3594;42.152;24.714;2022-08-19T06:20:09;-24590.59;;;27.96;nan
7105;BME280;3594;42.152;24.714;2022-08-19T06:22:47;-24596.63;;;28.19;nan
7105;BME280;3594;42.152;24.714;2022-08-19T06:25:15;-24583.75;;;27.71;nan
7105;BME280;3594;42.152;24.714;2022-08-19T06:27:41;-24598.41;;;28.25;nan
7105;BME280;3594;42.152;24.714;2022-08-19T06:30:08;-24595.53;;;28.15;nan
7105;BME280;3594;42.152;24.714;2022-08-19T06:32:34;-24578.00;;;27.50;nan
7105;BME280;3594;42.152;24.714;2022-08-19T06:35:00;-24587.88;;;27.86;nan
7105;BME280;3594;42.152;24.714;2022-08-19T06:37:25;-24595.81;;;28.16;nan
7105;BME280;3594;42.152;24.714;2022-08-19T06:39:51;-24588.97;;;27.90;nan
7105;BME280;3594;42.152;24.714;2022-08-19T06:42:16;-24597.31;;;28.21;nan
7105;BME280;3594;42.152;24.714;2022-08-19T06:44:45;-24602.78;;;28.41;nan
7105;BME280;3594;42.152;24.714;2022-08-19T06:47:14;-24610.59;;;28.70;nan
7105;BME280;3594;42.152;24.714;2022-08-19T06:49:41;-24608.53;;;28.63;nan
7105;BME280;3594;42.152;24.714;2022-08-19T06:52:08;-24623.16;;;29.17;nan
7105;BME280;3594;42.152;24.714;2022-08-19T06:54:33;-24616.88;;;28.93;nan
7105;BME280;3594;42.152;24.714;2022-08-19T06:57:00;-24616.88;;;28.93;nan
7105;BME280;3594;42.152;24.714;2022-08-19T06:59:29;-24611.81;;;28.75;nan
7105;BME280;3594;42.152;24.714;2022-08-19T07:01:59;-24628.63;;;29.37;nan
7105;BME280;3594;42.152;24.714;2022-08-19T07:04:28;-24625.88;;;29.27;nan
7105;BME280;3594;42.152;24.714;2022-08-19T07:07:08;-24632.59;;;29.52;nan
7105;BME280;3594;42.152;24.714;2022-08-19T07:09:36;-24628.06;;;29.35;nan
7105;BME280;3594;42.152;24.714;2022-08-19T07:12:04;-24630.53;;;29.44;nan
7105;BME280;3594;42.152;24.714;2022-08-19T07:14:32;-24630.53;;;29.44;nan
7105;BME280;3594;42.152;24.714;2022-08-19T07:17:00;-24637.34;;;29.69;nan
7105;BME280;3594;42.152;24.714;2022-08-19T07:19:26;-24637.22;;;29.69;nan
7105;BME280;3594;42.152;24.714;2022-08-19T07:21:53;-24644.47;;;29.96;nan
7105;BME280;3594;42.152;24.714;2022-08-19T07:24:20;-24642.13;;;29.87;nan
7105;BME280;3594;42.152;24.714;2022-08-19T07:26:48;-24646.09;;;30.02;nan
7105;BME280;3594;42.152;24.714;2022-08-19T07:29:13;-24645.94;;;30.01;nan
7105;BME280;3594;42.152;24.714;2022-08-19T07:31:39;-24654.28;;;30.32;nan
7105;BME280;3594;42.152;24.714;2022-08-19T07:34:06;-24654.28;;;30.32;nan
7105;BME280;3594;42.152;24.714;2022-08-19T07:36:34;-24657.00;;;30.42;nan
7105;BME280;3594;42.152;24.714;2022-08-19T07:39:05;-24666.94;;;30.79;nan
7105;BME280;3594;42.152;24.714;2022-08-19T07:41:31;-24670.88;;;30.94;nan
7105;BME280;3594;42.152;24.714;2022-08-19T07:43:59;-24669.78;;;30.90;nan
7105;BME280;3594;42.152;24.714;2022-08-19T07:46:28;-24672.66;;;31.00;nan
7105;BME280;3594;42.152;24.714;2022-08-19T07:48:56;-24675.53;;;31.11;nan
7105;BME280;3594;42.152;24.714;2022-08-19T07:51:22;-24670.47;;;30.92;nan
7105;BME280;3594;42.152;24.714;2022-08-19T07:53:48;-24667.75;;;30.82;nan
7105;BME280;3594;42.152;24.714;2022-08-19T07:56:17;-24668.84;;;30.86;nan
7105;BME280;3594;42.152;24.714;2022-08-19T07:58:45;-24672.09;;;30.98;nan
7105;BME280;3594;42.152;24.714;2022-08-19T08:01:13;-24670.75;;;30.93;nan
7105;BME280;3594;42.152;24.714;2022-08-19T08:03:39;-24677.69;;;31.19;nan
7105;BME280;3594;42.152;24.714;2022-08-19T08:06:24;-24675.25;;;31.10;nan
7105;BME280;3594;42.152;24.714;2022-08-19T08:09:08;-24676.75;;;31.16;nan
7105;BME280;3594;42.152;24.714;2022-08-19T08:11:38;-24679.19;;;31.25;nan
7105;BME280;3594;42.152;24.714;2022-08-19T08:14:03;-24678.91;;;31.24;nan
7105;BME280;3594;42.152;24.714;2022-08-19T08:16:34;-24687.22;;;31.54;nan
7105;BME280;3594;42.152;24.714;2022-08-19T08:18:59;-24689.53;;;31.63;nan
7105;BME280;3594;42.152;24.714;2022-08-19T08:21:25;-24692.09;;;31.73;nan
7105;BME280;3594;42.152;24.714;2022-08-19T08:23:51;-24691.97;;;31.72;nan
7105;BME280;3594;42.152;24.714;2022-08-19T08:26:20;-24703.78;;;32.16;nan
7105;BME280;3594;42.152;24.714;2022-08-19T08:28:46;-24703.13;;;32.14;nan
7105;BME280;3594;42.152;24.714;2022-08-19T08:31:12;-24706.22;;;32.25;nan
7105;BME280;3594;42.152;24.714;2022-08-19T08:33:37;-24709.50;;;32.37;nan
7105;BME280;3594;42.152;24.714;2022-08-19T08:36:08;-24705.69;;;32.23;nan
7105;BME280;3594;42.152;24.714;2022-08-19T08:38:34;-24706.91;;;32.28;nan
7105;BME280;3594;42.152;24.714;2022-08-19T08:41:31;-24715.72;;;32.61;nan
7105;BME280;3594;42.152;24.714;2022-08-19T08:44:00;-24721.56;;;32.82;nan
7105;BME280;3594;42.152;24.714;2022-08-19T08:46:39;-24714.38;;;32.56;nan
7105;BME280;3594;42.152;24.714;2022-08-19T08:49:18;-24716.28;;;32.63;nan
7105;BME280;3594;42.152;24.714;2022-08-19T08:51:59;-24726.03;;;32.99;nan
7105;BME280;3594;42.152;24.714;2022-08-19T08:54:32;-24726.59;;;33.01;nan
7105;BME280;3594;42.152;24.714;2022-08-19T08:56:58;-24728.22;;;33.07;nan
7105;BME280;3594;42.152;24.714;2022-08-19T08:59:30;-24738.09;;;33.44;nan
7105;BME280;3594;42.152;24.714;2022-08-19T09:01:57;-24747.44;;;33.79;nan
7105;BME280;3594;42.152;24.714;2022-08-19T09:04:23;-24749.06;;;33.85;nan
7105;BME280;3594;42.152;24.714;2022-08-19T09:06:51;-24751.91;;;33.96;nan
7105;BME280;3594;42.152;24.714;2022-08-19T09:09:34;-24756.63;;;34.13;nan
7105;BME280;3594;42.152;24.714;2022-08-19T09:15:03;-24771.78;;;34.70;nan
7105;BME280;3594;42.152;24.714;2022-08-19T09:17:31;-24770.84;;;34.67;nan
7105;BME280;3594;42.152;24.714;2022-08-19T09:22:34;-24757.31;;;34.16;nan
7105;BME280;3594;42.152;24.714;2022-08-19T09:25:00;-24769.06;;;34.60;nan
7105;BME280;3594;42.152;24.714;2022-08-19T09:27:27;-24760.44;;;34.28;nan
7105;BME280;3594;42.152;24.714;2022-08-19T09:29:54;-24760.44;;;34.28;nan
7105;BME280;3594;42.152;24.714;2022-08-19T09:32:21;-24746.09;;;33.74;nan
7105;BME280;3594;42.152;24.714;2022-08-19T09:34:47;-24755.00;;;34.07;nan
7105;BME280;3594;42.152;24.714;2022-08-19T09:37:13;-24759.06;;;34.23;nan
7105;BME280;3594;42.152;24.714;2022-08-19T09:39:39;-24764.63;;;34.43;nan
7105;BME280;3594;42.152;24.714;2022-08-19T09:42:06;-24765.97;;;34.48;nan
7105;BME280;3594;42.152;24.714;2022-08-19T09:44:38;-24769.34;;;34.61;nan
7105;BME280;3594;42.152;24.714;2022-08-19T09:47:04;-24776.38;;;34.87;nan
7105;BME280;3594;42.152;24.714;2022-08-19T09:49:30;-24773.66;;;34.77;nan
7105;BME280;3594;42.152;24.714;2022-08-19T09:51:56;-24785.81;;;35.23;nan
7105;BME280;3594;42.152;24.714;2022-08-19T09:54:22;-24782.97;;;35.12;nan
7105;BME280;3594;42.152;24.714;2022-08-19T09:56:47;-24783.38;;;35.14;nan
7105;BME280;3594;42.152;24.714;2022-08-19T09:59:13;-24789.72;;;35.37;nan
7105;BME280;3594;42.152;24.714;2022-08-19T10:01:38;-24786.63;;;35.26;nan
7105;BME280;3594;42.152;24.714;2022-08-19T10:04:05;-24796.75;;;35.64;nan
7105;BME280;3594;42.152;24.714;2022-08-19T10:06:35;-24797.41;;;35.66;nan
7105;BME280;3594;42.152;24.714;2022-08-19T10:09:02;-24797.41;;;35.66;nan
7105;BME280;3594;42.152;24.714;2022-08-19T10:11:31;-24791.34;;;35.43;nan
7105;BME280;3594;42.152;24.714;2022-08-19T10:13:56;-24790.00;;;35.38;nan
7105;BME280;3594;42.152;24.714;2022-08-19T10:16:23;-24782.31;;;35.10;nan
7105;BME280;3594;42.152;24.714;2022-08-19T10:18:50;-24766.38;;;34.50;nan
7105;BME280;3594;42.152;24.714;2022-08-19T10:21:26;-24762.59;;;34.36;nan
7105;BME280;3594;42.152;24.714;2022-08-19T10:23:54;-24760.16;;;34.27;nan
7105;BME280;3594;42.152;24.714;2022-08-19T10:26:28;-24766.78;;;34.51;nan
7105;BME280;3594;42.152;24.714;2022-08-19T10:28:54;-24774.06;;;34.79;nan
7105;BME280;3594;42.152;24.714;2022-08-19T10:31:23;-24765.16;;;34.45;nan
7105;BME280;3594;42.152;24.714;2022-08-19T10:33:49;-24768.00;;;34.56;nan
7105;BME280;3594;42.152;24.714;2022-08-19T10:36:22;-24763.94;;;34.41;nan
7105;BME280;3594;42.152;24.714;2022-08-19T10:38:50;-24765.28;;;34.46;nan
7105;BME280;3594;42.152;24.714;2022-08-19T10:41:19;-24780.41;;;35.02;nan
7105;BME280;3594;42.152;24.714;2022-08-19T10:43:46;-24782.97;;;35.12;nan
7105;BME280;3594;42.152;24.714;2022-08-19T10:46:13;-24781.22;;;35.06;nan
7105;BME280;3594;42.152;24.714;2022-08-19T10:48:39;-24766.91;;;34.52;nan
7105;BME280;3594;42.152;24.714;2022-08-19T10:51:05;-24771.38;;;34.69;nan
7105;BME280;3594;42.152;24.714;2022-08-19T10:53:50;-24779.59;;;34.99;nan
7105;BME280;3594;42.152;24.714;2022-08-19T10:56:17;-24770.28;;;34.65;nan
7105;BME280;3594;42.152;24.714;2022-08-19T10:59:01;-24795.13;;;35.58;nan
7105;BME280;3594;42.152;24.714;2022-08-19T11:01:30;-24793.50;;;35.52;nan
7105;BME280;3594;42.152;24.714;2022-08-19T11:03:57;-24800.38;;;35.77;nan
7105;BME280;3594;42.152;24.714;2022-08-19T11:06:23;-24801.72;;;35.82;nan
7105;BME280;3594;42.152;24.714;2022-08-19T11:08:51;-24775.81;;;34.85;nan
7105;BME280;3594;42.152;24.714;2022-08-19T11:11:17;-24770.41;;;34.65;nan
7105;BME280;3594;42.152;24.714;2022-08-19T11:13:43;-24772.06;;;34.71;nan
7105;BME280;3594;42.152;24.714;2022-08-19T11:16:18;-24769.22;;;34.60;nan
7105;BME280;3594;42.152;24.714;2022-08-19T11:18:50;-24782.31;;;35.10;nan
7105;BME280;3594;42.152;24.714;2022-08-19T11:21:24;-24776.50;;;34.88;nan
7105;BME280;3594;42.152;24.714;2022-08-19T11:23:52;-24784.06;;;35.16;nan
7105;BME280;3594;42.152;24.714;2022-08-19T11:26:19;-24786.22;;;35.24;nan
7105;BME280;3594;42.152;24.714;2022-08-19T11:28:46;-24802.00;;;35.83;nan
7105;BME280;3594;42.152;24.714;2022-08-19T11:31:13;-24804.56;;;35.93;nan
7105;BME280;3594;42.152;24.714;2022-08-19T11:33:40;-24811.28;;;36.18;nan
7105;BME280;3594;42.152;24.714;2022-08-19T11:36:06;-24806.03;;;35.99;nan
7105;BME280;3594;42.152;24.714;2022-08-19T11:38:33;-24796.06;;;35.61;nan
7105;BME280;3594;42.152;24.714;2022-08-19T11:41:00;-24799.69;;;35.75;nan
7105;BME280;3594;42.152;24.714;2022-08-19T11:43:27;-24809.41;;;36.11;nan
7105;BME280;3594;42.152;24.714;2022-08-19T11:45:54;-24816.28;;;36.37;nan
7105;BME280;3594;42.152;24.714;2022-08-19T11:48:20;-24823.53;;;36.64;nan
7105;BME280;3594;42.152;24.714;2022-08-19T11:50:53;-24828.38;;;36.83;nan
7105;BME280;3594;42.152;24.714;2022-08-19T11:53:22;-24832.28;;;36.97;nan
7105;BME280;3594;42.152;24.714;2022-08-19T11:55:48;-24829.72;;;36.88;nan
7105;BME280;3594;42.152;24.714;2022-08-19T11:58:15;-24834.28;;;37.05;nan
7105;BME280;3594;42.152;24.714;2022-08-19T12:00:41;-24826.75;;;36.77;nan
7105;BME280;3594;42.152;24.714;2022-08-19T12:03:07;-24830.78;;;36.92;nan
7105;BME280;3594;42.152;24.714;2022-08-19T12:05:33;-24833.88;;;37.03;nan
7105;BME280;3594;42.152;24.714;2022-08-19T12:08:01;-24825.28;;;36.71;nan
7105;BME280;3594;42.152;24.714;2022-08-19T12:10:26;-24828.50;;;36.83;nan
7105;BME280;3594;42.152;24.714;2022-08-19T12:12:51;-24819.50;;;36.49;nan
7105;BME280;3594;42.152;24.714;2022-08-19T12:15:17;-24800.66;;;35.78;nan
7105;BME280;3594;42.152;24.714;2022-08-19T12:17:42;-24795.78;;;35.60;nan
7105;BME280;3594;42.152;24.714;2022-08-19T12:20:10;-24796.19;;;35.62;nan
7105;BME280;3594;42.152;24.714;2022-08-19T12:22:37;-24817.06;;;36.40;nan
7105;BME280;3594;42.152;24.714;2022-08-19T12:25:05;-24820.16;;;36.52;nan
7105;BME280;3594;42.152;24.714;2022-08-19T12:27:32;-24831.59;;;36.95;nan
7105;BME280;3594;42.152;24.714;2022-08-19T12:29:58;-24825.16;;;36.70;nan
7105;BME280;3594;42.152;24.714;2022-08-19T12:32:25;-24829.06;;;36.85;nan
7105;BME280;3594;42.152;24.714;2022-08-19T12:34:51;-24831.06;;;36.93;nan
7105;BME280;3594;42.152;24.714;2022-08-19T12:37:16;-24824.75;;;36.69;nan
7105;BME280;3594;42.152;24.714;2022-08-19T12:39:43;-24834.41;;;37.05;nan
7105;BME280;3594;42.152;24.714;2022-08-19T12:42:11;-24832.94;;;37.00;nan
7105;BME280;3594;42.152;24.714;2022-08-19T12:44:38;-24841.28;;;37.31;nan
7105;BME280;3594;42.152;24.714;2022-08-19T12:47:05;-24838.19;;;37.20;nan
7105;BME280;3594;42.152;24.714;2022-08-19T12:49:32;-24841.69;;;37.33;nan
7105;BME280;3594;42.152;24.714;2022-08-19T12:52:05;-24840.88;;;37.30;nan
7105;BME280;3594;42.152;24.714;2022-08-19T12:54:33;-24844.22;;;37.42;nan
7105;BME280;3594;42.152;24.714;2022-08-19T12:56:59;-24847.19;;;37.53;nan
7105;BME280;3594;42.152;24.714;2022-08-19T12:59:25;-24833.34;;;37.01;nan
7105;BME280;3594;42.152;24.714;2022-08-19T13:01:51;-24823.00;;;36.62;nan
7105;BME280;3594;42.152;24.714;2022-08-19T13:04:17;-24831.34;;;36.94;nan
7105;BME280;3594;42.152;24.714;2022-08-19T13:06:42;-24836.19;;;37.12;nan
7105;BME280;3594;42.152;24.714;2022-08-19T13:09:08;-24830.53;;;36.91;nan
7105;BME280;3594;42.152;24.714;2022-08-19T13:11:34;-24832.53;;;36.98;nan
7105;BME280;3594;42.152;24.714;2022-08-19T13:14:01;-24838.31;;;37.20;nan
7105;BME280;3594;42.152;24.714;2022-08-19T13:16:27;-24832.81;;;36.99;nan
7105;BME280;3594;42.152;24.714;2022-08-19T13:18:54;-24829.44;;;36.87;nan
7105;BME280;3594;42.152;24.714;2022-08-19T13:21:23;-24823.13;;;36.63;nan
7105;BME280;3594;42.152;24.714;2022-08-19T13:23:49;-24834.56;;;37.06;nan
7105;BME280;3594;42.152;24.714;2022-08-19T13:26:16;-24834.16;;;37.04;nan
7105;BME280;3594;42.152;24.714;2022-08-19T13:28:43;-24832.69;;;36.99;nan
7105;BME280;3594;42.152;24.714;2022-08-19T13:31:30;-24821.91;;;36.58;nan
7105;BME280;3594;42.152;24.714;2022-08-19T13:34:16;-24822.88;;;36.62;nan